createdAt,value
2018-11-21T00:00:23.404Z,35.43
2018-11-21T00:02:50.884Z,44.10
2018-11-21T00:05:18.812Z,43.10
2018-11-21T00:07:46.327Z,44.87
2018-11-21T00:10:13.884Z,42.93
2018-11-21T00:12:49.484Z,45.77
2018-11-21T00:15:16.984Z,39.47
2018-11-21T00:17:44.484Z,44.60
2018-11-21T00:20:12.032Z,45.40
2018-11-21T00:22:39.464Z,40.83
2018-11-21T00:25:07.104Z,45.00
2018-11-21T00:27:34.505Z,43.33
2018-11-21T00:30:02.133Z,46.53
2018-11-21T00:32:32.024Z,43.47
2018-11-21T00:34:59.580Z,45.27
2018-11-21T00:37:27.657Z,42.97
2018-11-21T00:39:55.125Z,43.77
2018-11-21T00:42:22.623Z,44.87
2018-11-21T00:44:50.089Z,42.43
2018-11-21T00:47:17.744Z,40.97
2018-11-21T00:49:45.324Z,41.17
2018-11-21T00:52:12.884Z,45.00
2018-11-21T00:54:40.304Z,44.80
2018-11-21T00:57:08.044Z,42.07
2018-11-21T00:59:35.524Z,39.67
2018-11-21T01:02:03.264Z,39.97
2018-11-21T01:04:30.728Z,43.53
2018-11-21T01:06:58.332Z,43.77
2018-11-21T01:09:25.794Z,41.83
2018-11-21T01:11:53.332Z,44.10
2018-11-21T01:14:21.724Z,38.27
2018-11-21T01:16:49.384Z,45.03
2018-11-21T01:19:16.894Z,44.30
2018-11-21T01:21:44.364Z,40.90
2018-11-21T01:24:11.904Z,42.40
2018-11-21T01:26:39.392Z,45.07
2018-11-21T01:29:06.907Z,44.03
2018-11-21T01:31:34.392Z,43.50
2018-11-21T01:34:02.412Z,44.13
2018-11-21T01:36:29.884Z,43.47
2018-11-21T01:38:57.836Z,42.37
2018-11-21T01:41:25.412Z,41.07
2018-11-21T01:43:52.964Z,37.57
2018-11-21T01:46:20.692Z,42.00
2018-11-21T01:48:48.224Z,41.40
2018-11-21T01:51:15.684Z,39.80
2018-11-21T01:53:43.304Z,44.30
2018-11-21T01:56:10.726Z,45.57
2018-11-21T01:58:38.206Z,40.57
2018-11-21T02:01:05.684Z,41.37
2018-11-21T02:03:33.164Z,37.93
2018-11-21T02:06:00.724Z,41.03
2018-11-21T02:08:28.204Z,37.33
2018-11-21T02:10:55.704Z,39.80
2018-11-21T02:13:23.184Z,40.77
2018-11-21T02:15:50.604Z,38.87
2018-11-21T02:18:17.985Z,39.67
2018-11-21T02:20:45.565Z,44.87
2018-11-21T02:23:12.964Z,41.23
2018-11-21T02:25:40.447Z,38.80
2018-11-21T02:28:07.904Z,39.20
2018-11-21T02:30:35.405Z,38.00
2018-11-21T02:33:02.807Z,40.23
2018-11-21T02:35:30.304Z,38.60
2018-11-21T02:37:57.867Z,37.33
2018-11-21T02:40:25.524Z,35.77
2018-11-21T02:42:52.924Z,36.07
2018-11-21T02:45:20.607Z,40.07
2018-11-21T02:47:48.033Z,37.10
2018-11-21T02:50:15.492Z,38.83
2018-11-21T02:52:42.971Z,54.60
2018-11-21T02:55:10.445Z,40.63
2018-11-21T02:57:37.892Z,39.90
2018-11-21T03:00:14.084Z,34.00
2018-11-21T03:02:41.525Z,37.03
2018-11-21T03:05:08.992Z,34.17
2018-11-21T03:07:36.819Z,34.63
2018-11-21T03:10:05.906Z,29.33
2018-11-21T03:12:33.405Z,33.40
2018-11-21T03:15:00.837Z,29.63
2018-11-21T03:17:28.336Z,32.80
2018-11-21T03:19:55.824Z,33.13
2018-11-21T03:22:23.344Z,33.10
2018-11-21T03:24:50.804Z,35.47
2018-11-21T03:27:18.284Z,29.40
2018-11-21T03:29:45.783Z,34.37
2018-11-21T03:32:13.275Z,34.70
2018-11-21T03:34:40.664Z,33.17
2018-11-21T03:37:08.205Z,33.33
2018-11-21T03:39:35.664Z,33.43
2018-11-21T03:42:03.188Z,34.93
2018-11-21T03:44:30.605Z,32.70
2018-11-21T03:46:58.128Z,36.47
2018-11-21T03:49:25.612Z,32.93
2018-11-21T03:51:53.112Z,32.73
2018-11-21T03:54:21.785Z,35.63
2018-11-21T03:56:49.292Z,34.87
2018-11-21T03:59:16.713Z,38.47
2018-11-21T04:01:44.183Z,38.90
2018-11-21T04:04:11.645Z,39.83
2018-11-21T04:06:39.664Z,36.40
2018-11-21T04:09:09.012Z,34.20
2018-11-21T04:11:36.465Z,34.70
2018-11-21T04:14:04.045Z,35.17
2018-11-21T04:16:31.504Z,35.20
2018-11-21T04:18:58.984Z,32.53
2018-11-21T04:21:26.397Z,32.33
2018-11-21T04:23:53.886Z,37.20
2018-11-21T04:26:21.325Z,35.13
2018-11-21T04:28:48.980Z,37.30
2018-11-21T04:31:17.053Z,32.77
2018-11-21T04:33:44.678Z,29.77
2018-11-21T04:36:12.792Z,30.67
2018-11-21T04:38:40.244Z,30.50
2018-11-21T04:41:07.666Z,30.40
2018-11-21T04:43:35.364Z,27.97
2018-11-21T04:46:03.744Z,30.17
2018-11-21T04:48:31.513Z,31.50
2018-11-21T04:50:58.929Z,29.40
2018-11-21T04:53:28.054Z,29.37
2018-11-21T04:55:54.325Z,30.73
2018-11-21T04:58:21.805Z,28.97
2018-11-21T05:00:49.326Z,29.47
2018-11-21T05:03:16.753Z,29.07
2018-11-21T05:05:44.264Z,33.33
2018-11-21T05:08:11.685Z,28.50
2018-11-21T05:10:39.245Z,27.47
2018-11-21T05:13:06.704Z,24.77
2018-11-21T05:15:34.312Z,27.73
2018-11-21T05:18:01.719Z,29.87
2018-11-21T05:20:29.976Z,28.03
2018-11-21T05:22:57.404Z,28.57
2018-11-21T05:25:24.884Z,28.47
2018-11-21T05:27:52.353Z,28.17
2018-11-21T05:30:19.865Z,27.07
2018-11-21T05:32:47.385Z,27.23
2018-11-21T05:35:14.953Z,28.00
2018-11-21T05:37:42.433Z,26.63
2018-11-21T05:40:10.604Z,27.40
2018-11-21T05:42:38.172Z,24.83
2018-11-21T05:45:06.546Z,25.60
2018-11-21T05:47:34.045Z,26.13
2018-11-21T05:50:01.445Z,25.13
2018-11-21T05:52:29.355Z,25.43
2018-11-21T05:54:57.795Z,26.27
2018-11-21T05:57:25.272Z,30.03
2018-11-21T05:59:52.745Z,24.50
2018-11-21T06:02:20.205Z,28.10
2018-11-21T06:04:47.647Z,27.13
2018-11-21T06:07:15.145Z,25.43
2018-11-21T06:09:42.645Z,23.37
2018-11-21T06:12:10.285Z,28.47
2018-11-21T06:14:37.755Z,28.00
2018-11-21T06:17:05.665Z,26.43
2018-11-21T06:19:33.305Z,25.23
2018-11-21T06:22:00.785Z,27.67
2018-11-21T06:24:28.225Z,25.73
2018-11-21T06:26:59.852Z,29.57
2018-11-21T06:29:27.424Z,25.27
2018-11-21T06:31:54.937Z,25.83
2018-11-21T06:34:22.426Z,25.60
2018-11-21T06:36:49.965Z,27.03
2018-11-21T06:39:18.225Z,24.90
2018-11-21T06:41:45.485Z,25.17
2018-11-21T06:44:13.105Z,27.17
2018-11-21T06:47:03.317Z,25.97
2018-11-21T06:49:29.329Z,27.37
2018-11-21T06:52:05.777Z,29.17
2018-11-21T06:54:33.405Z,27.60
2018-11-21T06:57:08.405Z,24.70
2018-11-21T06:59:46.325Z,26.67
2018-11-21T07:02:13.880Z,28.60
2018-11-21T07:04:41.605Z,31.67
2018-11-21T07:07:24.544Z,29.83
2018-11-21T07:09:52.345Z,38.93
2018-11-21T07:15:47.585Z,46.27
2018-11-21T07:22:02.730Z,44.03
2018-11-21T07:24:30.665Z,43.27
2018-11-21T07:26:58.066Z,42.13
2018-11-21T07:29:25.750Z,38.93
2018-11-21T07:31:53.193Z,45.80
2018-11-21T07:34:21.629Z,40.07
2018-11-21T07:36:49.705Z,40.00
2018-11-21T07:39:17.333Z,39.50
2018-11-21T07:41:45.045Z,45.33
2018-11-21T07:44:12.585Z,43.17
2018-11-21T07:46:40.065Z,45.40
2018-11-21T07:49:07.524Z,46.90
2018-11-21T07:51:35.293Z,41.17
2018-11-21T07:54:02.913Z,40.47
2018-11-21T07:57:12.365Z,43.30
2018-11-21T08:00:00.149Z,39.70
2018-11-21T08:02:32.693Z,39.07
2018-11-21T08:05:05.004Z,45.63
2018-11-21T08:07:41.097Z,48.27
2018-11-21T08:10:30.885Z,38.83
2018-11-21T08:13:16.300Z,40.13
2018-11-21T08:16:13.185Z,43.17
2018-11-21T08:18:51.624Z,43.13
2018-11-21T08:21:47.152Z,37.43
2018-11-21T08:24:37.185Z,37.77
2018-11-21T08:27:30.108Z,38.03
2018-11-21T08:29:57.644Z,38.53
2018-11-21T08:32:25.125Z,37.23
2018-11-21T08:34:52.566Z,38.33
2018-11-21T08:37:20.025Z,37.43
2018-11-21T08:39:47.545Z,37.13
2018-11-21T08:42:16.625Z,36.10
2018-11-21T08:44:44.025Z,31.20
2018-11-21T08:47:11.585Z,27.60
2018-11-21T08:49:39.004Z,32.40
2018-11-21T08:52:06.669Z,30.83
2018-11-21T08:54:34.165Z,31.57
2018-11-21T08:57:01.627Z,33.00
2018-11-21T08:59:34.925Z,29.23
2018-11-21T09:02:02.385Z,29.50
2018-11-21T09:04:29.825Z,28.53
2018-11-21T09:06:57.445Z,32.93
2018-11-21T09:09:24.837Z,32.20
2018-11-21T09:11:52.277Z,34.10
2018-11-21T09:14:19.785Z,32.73
2018-11-21T09:16:47.284Z,31.50
2018-11-21T09:19:14.725Z,28.87
2018-11-21T09:21:42.144Z,38.20
2018-11-21T09:24:09.635Z,40.57
2018-11-21T09:26:37.089Z,39.43
2018-11-21T09:29:04.837Z,46.00
2018-11-21T09:31:32.344Z,41.50
2018-11-21T09:33:59.785Z,44.80
2018-11-21T09:36:27.308Z,39.40
2018-11-21T09:38:54.784Z,43.53
2018-11-21T09:41:22.285Z,45.50
2018-11-21T09:43:52.635Z,40.80
2018-11-21T09:46:20.153Z,42.73
2018-11-21T09:48:47.652Z,42.23
2018-11-21T09:51:15.165Z,38.70
2018-11-21T09:53:42.608Z,44.27
2018-11-21T09:56:10.045Z,41.47
2018-11-21T09:58:37.563Z,43.40
2018-11-21T10:01:41.785Z,40.73
2018-11-21T10:04:09.205Z,39.93
2018-11-21T10:06:38.747Z,43.73
2018-11-21T10:09:16.017Z,45.67
2018-11-21T10:11:43.508Z,42.10
2018-11-21T10:14:10.977Z,41.25
2018-11-21T10:16:38.544Z,39.10
2018-11-21T10:19:06.269Z,39.73
2018-11-21T10:21:35.204Z,40.63
2018-11-21T10:24:02.904Z,38.00
2018-11-21T10:26:30.696Z,39.30
2018-11-21T10:28:58.213Z,42.50
2018-11-21T10:31:25.872Z,39.77
2018-11-21T10:33:53.344Z,36.93
2018-11-21T10:36:20.928Z,37.27
2018-11-21T10:38:48.645Z,39.57
2018-11-21T10:41:16.192Z,36.07
2018-11-21T10:43:49.992Z,37.50
2018-11-21T10:46:17.604Z,34.50
2018-11-21T10:48:45.644Z,39.50
2018-11-21T10:51:14.530Z,39.33
2018-11-21T10:53:41.104Z,38.60
2018-11-21T10:56:08.548Z,40.10
2018-11-21T10:58:36.096Z,34.93
2018-11-21T11:01:21.685Z,36.87
2018-11-21T11:03:58.137Z,35.80
2018-11-21T11:06:43.864Z,36.73
2018-11-21T11:09:40.813Z,38.90
2018-11-21T11:12:43.267Z,36.33
2018-11-21T11:15:26.888Z,32.97
2018-11-21T11:18:12.851Z,35.80
2018-11-21T11:21:01.156Z,36.90
2018-11-21T11:23:51.580Z,38.87
2018-11-21T11:26:38.695Z,37.93
2018-11-21T11:29:25.817Z,37.50
2018-11-21T11:32:22.123Z,40.63
2018-11-21T11:35:10.483Z,34.70
2018-11-21T11:38:03.489Z,37.33
2018-11-21T11:40:54.416Z,38.17
2018-11-21T11:43:53.324Z,39.90
2018-11-21T11:46:38.763Z,42.00
2018-11-21T11:49:24.844Z,38.37
2018-11-21T11:52:15.125Z,41.40
2018-11-21T11:55:02.214Z,42.27
2018-11-21T11:58:01.332Z,42.00
2018-11-21T12:00:40.504Z,41.63
2018-11-21T12:03:26.155Z,39.83
2018-11-21T12:06:12.624Z,44.80
2018-11-21T12:09:05.804Z,43.77
2018-11-21T12:11:51.760Z,46.03
2018-11-21T12:14:37.292Z,46.80
2018-11-21T12:17:22.764Z,41.87
2018-11-21T12:20:23.925Z,45.47
2018-11-21T12:23:20.304Z,49.37
2018-11-21T12:26:16.696Z,49.23
2018-11-21T12:29:22.124Z,42.53
2018-11-21T12:32:08.197Z,49.33
2018-11-21T12:35:13.306Z,56.20
2018-11-21T12:37:57.105Z,56.00
2018-11-21T12:40:53.051Z,48.43
2018-11-21T12:43:38.592Z,51.57
2018-11-21T12:46:25.364Z,54.57
2018-11-21T12:49:12.304Z,53.10
2018-11-21T12:52:05.284Z,55.70
2018-11-21T12:54:52.334Z,54.07
2018-11-21T12:57:45.493Z,51.73
2018-11-21T13:00:31.325Z,55.00
2018-11-21T13:03:03.864Z,56.77
2018-11-21T13:05:49.372Z,54.63
2018-11-21T13:08:34.992Z,53.70
2018-11-21T13:11:22.012Z,51.87
2018-11-21T13:14:07.567Z,53.20
2018-11-21T13:17:00.473Z,51.93
2018-11-21T13:19:45.992Z,51.03
2018-11-21T13:22:44.971Z,49.07
2018-11-21T13:25:30.425Z,51.67
2018-11-21T13:28:20.035Z,48.83
2018-11-21T13:31:06.997Z,52.90
2018-11-21T13:33:53.984Z,46.90
2018-11-21T13:36:49.797Z,51.10
2018-11-21T13:39:55.285Z,50.43
2018-11-21T13:42:30.439Z,52.20
2018-11-21T13:45:19.305Z,52.13
2018-11-21T13:48:21.305Z,45.67
2018-11-21T13:51:05.875Z,49.77
2018-11-21T13:53:58.864Z,50.17
2018-11-21T13:56:26.264Z,48.13
2018-11-21T13:58:53.844Z,52.27
2018-11-21T14:01:21.744Z,49.00
2018-11-21T14:03:49.424Z,52.60
2018-11-21T14:06:16.904Z,50.40
2018-11-21T14:08:44.572Z,48.30
2018-11-21T14:11:12.226Z,48.33
2018-11-21T14:13:39.869Z,48.17
2018-11-21T14:16:07.385Z,49.37
2018-11-21T14:18:34.836Z,53.20
2018-11-21T14:21:02.472Z,52.07
2018-11-21T14:23:30.025Z,47.67
2018-11-21T14:25:57.525Z,50.37
2018-11-21T14:28:25.024Z,55.37
2018-11-21T14:30:52.485Z,62.43
2018-11-21T14:33:20.085Z,59.83
2018-11-21T14:35:47.604Z,61.53
2018-11-21T14:38:15.337Z,61.77
2018-11-21T14:40:42.974Z,64.03
2018-11-21T14:43:10.496Z,67.13
2018-11-21T14:45:38.096Z,64.13
2018-11-21T14:48:05.828Z,66.60
2018-11-21T14:50:39.113Z,60.77
2018-11-21T14:53:02.132Z,63.93
2018-11-21T14:55:29.663Z,70.93
2018-11-21T14:57:57.116Z,65.93
2018-11-21T15:00:25.124Z,70.43
2018-11-21T15:02:52.605Z,74.63
2018-11-21T15:05:20.169Z,70.03
2018-11-21T15:07:47.944Z,66.43
2018-11-21T15:10:15.615Z,65.70
2018-11-21T15:12:43.144Z,67.60
2018-11-21T15:15:13.704Z,66.97
2018-11-21T15:17:41.534Z,64.93
2018-11-21T15:20:11.204Z,69.47
2018-11-21T15:22:38.884Z,67.73
2018-11-21T15:25:11.766Z,62.10
2018-11-21T15:27:39.657Z,64.13
2018-11-21T15:30:16.275Z,73.50
2018-11-21T15:32:44.188Z,65.73
2018-11-21T15:35:11.744Z,66.83
2018-11-21T15:37:40.106Z,67.93
2018-11-21T15:40:13.352Z,64.10
2018-11-21T15:42:41.012Z,64.10
2018-11-21T15:45:10.965Z,68.07
2018-11-21T15:47:38.564Z,70.73
2018-11-21T15:50:08.916Z,71.63
2018-11-21T15:52:39.904Z,60.77
2018-11-21T15:55:08.216Z,74.07
2018-11-21T15:57:37.245Z,66.23
2018-11-21T16:00:20.833Z,61.33
2018-11-21T16:02:49.532Z,62.27
2018-11-21T16:05:17.876Z,63.53
2018-11-21T16:08:07.816Z,66.90
2018-11-21T16:10:38.625Z,65.17
2018-11-21T16:13:06.763Z,65.37
2018-11-21T16:15:40.106Z,69.73
2018-11-21T16:18:08.104Z,67.50
2018-11-21T16:20:43.835Z,68.00
2018-11-21T16:23:11.457Z,68.37
2018-11-21T16:25:39.151Z,64.40
2018-11-21T16:28:08.016Z,68.70
2018-11-21T16:30:37.659Z,64.77
2018-11-21T16:33:05.899Z,73.37
2018-11-21T16:35:33.538Z,68.70
2018-11-21T16:38:01.357Z,66.03
2018-11-21T16:40:30.265Z,75.63
2018-11-21T16:42:59.004Z,70.80
2018-11-21T16:45:28.513Z,66.17
2018-11-21T16:47:56.064Z,69.63
2018-11-21T16:50:23.485Z,71.37
2018-11-21T16:52:51.225Z,69.40
2018-11-21T16:55:20.489Z,74.53
2018-11-21T16:57:48.624Z,70.23
2018-11-21T17:00:18.093Z,76.87
2018-11-21T17:02:45.844Z,66.47
2018-11-21T17:05:14.885Z,73.30
2018-11-21T17:07:42.792Z,70.80
2018-11-21T17:10:12.105Z,74.40
2018-11-21T17:12:39.784Z,71.43
2018-11-21T17:15:09.704Z,75.93
2018-11-21T17:17:37.081Z,66.97
2018-11-21T17:20:06.244Z,71.57
2018-11-21T17:22:33.664Z,76.57
2018-11-21T17:25:01.147Z,66.93
2018-11-21T17:27:28.584Z,73.87
2018-11-21T17:29:56.017Z,74.00
2018-11-21T17:32:23.464Z,72.53
2018-11-21T17:34:50.967Z,68.50
2018-11-21T17:37:18.440Z,70.80
2018-11-21T17:39:46.052Z,72.80
2018-11-21T17:42:13.952Z,78.33
2018-11-21T17:44:41.684Z,70.27
2018-11-21T17:47:09.165Z,77.53
2018-11-21T17:49:36.852Z,74.40
2018-11-21T17:52:04.640Z,71.83
2018-11-21T17:54:32.192Z,84.37
2018-11-21T17:56:59.665Z,77.37
2018-11-21T17:59:27.196Z,79.37
2018-11-21T18:01:54.725Z,74.43
2018-11-21T18:04:22.186Z,74.63
2018-11-21T18:06:49.564Z,70.87
2018-11-21T18:09:20.232Z,75.90
2018-11-21T18:11:47.644Z,76.03
2018-11-21T18:14:15.064Z,72.60
2018-11-21T18:16:42.692Z,74.37
2018-11-21T18:19:10.144Z,79.70
2018-11-21T18:21:37.831Z,69.17
2018-11-21T18:24:05.374Z,79.37
2018-11-21T18:26:32.904Z,73.53
2018-11-21T18:29:00.364Z,74.30
2018-11-21T18:31:27.917Z,74.93
2018-11-21T18:33:55.444Z,78.40
2018-11-21T18:36:22.972Z,84.53
2018-11-21T18:38:50.391Z,71.50
2018-11-21T18:41:18.124Z,77.47
2018-11-21T18:43:45.632Z,76.30
2018-11-21T18:46:13.145Z,74.67
2018-11-21T18:48:40.684Z,76.03
2018-11-21T18:51:08.205Z,73.47
2018-11-21T18:53:35.665Z,71.50
2018-11-21T18:56:22.604Z,83.23
2018-11-21T18:59:30.556Z,74.97
2018-11-21T19:01:58.167Z,75.77
2018-11-21T19:04:25.566Z,80.47
2018-11-21T19:06:53.084Z,77.63
2018-11-21T19:09:20.592Z,76.73
2018-11-21T19:11:48.244Z,80.17
2018-11-21T19:14:15.784Z,78.30
2018-11-21T19:16:43.332Z,72.07
2018-11-21T19:19:10.837Z,78.03
2018-11-21T19:21:38.364Z,75.40
2018-11-21T19:24:05.984Z,76.73
2018-11-21T19:26:33.655Z,81.70
2018-11-21T19:29:01.545Z,79.87
2018-11-21T19:31:29.724Z,81.07
2018-11-21T19:33:56.544Z,80.73
2018-11-21T19:36:24.144Z,75.70
2018-11-21T19:38:51.684Z,80.50
2018-11-21T19:41:19.285Z,82.50
2018-11-21T19:43:46.852Z,76.47
2018-11-21T19:46:14.324Z,75.30
2018-11-21T19:48:41.965Z,81.20
2018-11-21T19:51:10.093Z,80.70
2018-11-21T19:53:37.625Z,78.17
2018-11-21T19:56:05.153Z,84.60
2018-11-21T19:58:32.632Z,83.80
2018-11-21T20:01:00.204Z,79.43
2018-11-21T20:03:27.852Z,82.90
2018-11-21T20:05:55.333Z,75.20
2018-11-21T20:08:22.872Z,77.43
2018-11-21T20:10:51.092Z,81.63
2018-11-21T20:13:18.664Z,75.20
2018-11-21T20:15:46.144Z,81.47
2018-11-21T20:18:13.672Z,74.87
2018-11-21T20:20:41.145Z,72.70
2018-11-21T20:23:11.144Z,81.57
2018-11-21T20:25:38.672Z,81.20
2018-11-21T20:28:06.244Z,71.50
2018-11-21T20:30:35.604Z,75.70
2018-11-21T20:33:03.144Z,68.63
2018-11-21T20:35:30.663Z,76.63
2018-11-21T20:37:58.184Z,73.80
2018-11-21T20:40:27.499Z,65.80
2018-11-21T20:42:55.044Z,74.97
2018-11-21T20:45:23.924Z,72.57
2018-11-21T20:47:56.064Z,74.33
2018-11-21T20:50:23.583Z,72.97
2018-11-21T20:52:51.504Z,73.93
2018-11-21T20:55:20.732Z,78.53
2018-11-21T20:57:48.153Z,72.63
2018-11-21T21:00:17.285Z,68.63
2018-11-21T21:02:46.730Z,72.77
2018-11-21T21:05:17.432Z,71.03
2018-11-21T21:08:03.552Z,71.03
2018-11-21T21:10:33.613Z,72.70
2018-11-21T21:13:01.124Z,61.43
2018-11-21T21:15:28.713Z,67.27
2018-11-21T21:17:56.344Z,72.93
2018-11-21T21:20:25.244Z,77.20
2018-11-21T21:22:54.585Z,72.53
2018-11-21T21:25:23.644Z,67.50
2018-11-21T21:27:51.164Z,66.93
2018-11-21T21:30:36.984Z,71.37
2018-11-21T21:33:05.236Z,61.90
2018-11-21T21:35:33.632Z,64.83
2018-11-21T21:38:01.165Z,61.70
2018-11-21T21:40:29.133Z,65.43
2018-11-21T21:42:56.887Z,68.57
2018-11-21T21:45:25.747Z,61.37
2018-11-21T21:47:53.255Z,63.23
2018-11-21T21:50:22.504Z,68.23
2018-11-21T21:52:50.204Z,65.13
2018-11-21T21:55:19.044Z,60.70
2018-11-21T21:57:46.484Z,64.57
2018-11-21T22:00:18.864Z,66.80
2018-11-21T22:02:46.786Z,63.27
2018-11-21T22:05:14.455Z,67.23
2018-11-21T22:07:42.233Z,62.10
2018-11-21T22:10:11.732Z,64.70
2018-11-21T22:12:39.304Z,64.20
2018-11-21T22:15:24.373Z,64.97
2018-11-21T22:17:52.444Z,63.70
2018-11-21T22:20:22.304Z,62.63
2018-11-21T22:22:50.392Z,58.97
2018-11-21T22:25:18.144Z,59.37
2018-11-21T22:27:45.583Z,68.97
2018-11-21T22:30:14.144Z,62.87
2018-11-21T22:32:42.687Z,62.50
2018-11-21T22:35:11.172Z,59.93
2018-11-21T22:37:38.672Z,67.17
2018-11-21T22:40:08.625Z,61.67
2018-11-21T22:42:36.127Z,61.87
2018-11-21T22:45:03.878Z,63.60
2018-11-21T22:47:31.572Z,59.23
2018-11-21T22:49:59.276Z,54.77
2018-11-21T22:52:27.025Z,61.27
2018-11-21T22:54:54.852Z,56.90
2018-11-21T22:57:22.612Z,56.97
2018-11-21T22:59:50.404Z,62.07
2018-11-21T23:02:18.844Z,57.67
2018-11-21T23:04:46.445Z,59.00
2018-11-21T23:07:14.204Z,58.83
2018-11-21T23:09:41.916Z,55.60
2018-11-21T23:12:09.679Z,61.40
2018-11-21T23:14:37.392Z,63.70
2018-11-21T23:17:05.128Z,59.60
2018-11-21T23:19:32.805Z,55.93
2018-11-21T23:22:00.625Z,59.67
2018-11-21T23:24:28.304Z,63.47
2018-11-21T23:26:56.104Z,57.97
2018-11-21T23:29:23.833Z,56.00
2018-11-21T23:31:51.593Z,59.33
2018-11-21T23:34:19.296Z,57.83
2018-11-21T23:36:47.026Z,60.60
2018-11-21T23:39:14.533Z,57.93
2018-11-21T23:41:42.252Z,59.33
2018-11-21T23:44:09.752Z,61.30
2018-11-21T23:46:37.293Z,60.93
2018-11-21T23:49:04.848Z,53.57
2018-11-21T23:51:32.304Z,59.73
2018-11-21T23:53:59.924Z,60.00
2018-11-21T23:56:27.352Z,55.17
2018-11-21T23:58:54.824Z,55.27
